sensor_id;sensor_type;location;lat;lon;timestamp;pressure;altitude;pressure_sealevel;temperature;humidity
22580;BME280;11456;47.030;15.396;2024-02-14T00:00:39;98098.66;;;2.12;100.00
22580;BME280;11456;47.030;15.396;2024-02-14T00:03:07;98111.34;;;2.07;100.00
22580;BME280;11456;47.030;15.396;2024-02-14T00:05:34;98114.44;;;2.15;100.00
22580;BME280;11456;47.030;15.396;2024-02-14T00:08:01;98109.59;;;1.92;100.00
22580;BME280;11456;47.030;15.396;2024-02-14T00:10:29;98102.06;;;2.74;100.00
22580;BME280;11456;47.030;15.396;2024-02-14T00:12:56;98114.78;;;2.39;100.00
22580;BME280;11456;47.030;15.396;2024-02-14T00:15:23;98113.34;;;1.88;100.00
22580;BME280;11456;47.030;15.396;2024-02-14T00:17:52;98107.25;;;1.86;100.00
22580;BME280;11456;47.030;15.396;2024-02-14T00:20:19;98103.19;;;1.33;100.00
22580;BME280;11456;47.030;15.396;2024-02-14T00:22:46;98104.03;;;1.49;100.00
22580;BME280;11456;47.030;15.396;2024-02-14T00:25:13;98098.72;;;1.49;100.00
22580;BME280;11456;47.030;15.396;2024-02-14T00:27:44;98103.19;;;1.65;100.00
22580;BME280;11456;47.030;15.396;2024-02-14T00:30:10;98108.16;;;1.71;100.00
22580;BME280;11456;47.030;15.396;2024-02-14T00:32:37;98109.34;;;1.49;100.00
22580;BME280;11456;47.030;15.396;2024-02-14T00:35:04;98114.50;;;1.52;100.00
22580;BME280;11456;47.030;15.396;2024-02-14T00:37:31;98122.19;;;1.26;100.00
22580;BME280;11456;47.030;15.396;2024-02-14T00:40:00;98128.00;;;1.32;100.00
22580;BME280;11456;47.030;15.396;2024-02-14T00:42:26;98128.34;;;1.26;100.00
22580;BME280;11456;47.030;15.396;2024-02-14T00:44:53;98131.94;;;1.25;100.00
22580;BME280;11456;47.030;15.396;2024-02-14T00:47:20;98134.66;;;1.08;100.00
22580;BME280;11456;47.030;15.396;2024-02-14T00:49:47;98144.41;;;1.23;100.00
22580;BME280;11456;47.030;15.396;2024-02-14T00:52:14;98140.69;;;1.27;100.00
22580;BME280;11456;47.030;15.396;2024-02-14T00:54:43;98143.38;;;1.10;100.00
22580;BME280;11456;47.030;15.396;2024-02-14T00:57:09;98139.63;;;1.30;100.00
22580;BME280;11456;47.030;15.396;2024-02-14T00:59:36;98147.06;;;1.23;100.00
22580;BME280;11456;47.030;15.396;2024-02-14T01:02:03;98143.09;;;0.99;100.00
22580;BME280;11456;47.030;15.396;2024-02-14T01:04:29;98150.56;;;1.08;100.00
22580;BME280;11456;47.030;15.396;2024-02-14T01:06:56;98146.72;;;0.80;100.00
22580;BME280;11456;47.030;15.396;2024-02-14T01:09:23;98149.50;;;0.95;100.00
22580;BME280;11456;47.030;15.396;2024-02-14T01:11:50;98147.97;;;0.73;100.00
22580;BME280;11456;47.030;15.396;2024-02-14T01:14:17;98146.44;;;0.69;100.00
22580;BME280;11456;47.030;15.396;2024-02-14T01:16:44;98145.59;;;0.85;100.00
22580;BME280;11456;47.030;15.396;2024-02-14T01:19:11;98148.75;;;0.75;100.00
22580;BME280;11456;47.030;15.396;2024-02-14T01:21:39;98144.41;;;0.57;100.00
22580;BME280;11456;47.030;15.396;2024-02-14T01:24:06;98134.97;;;0.52;100.00
22580;BME280;11456;47.030;15.396;2024-02-14T01:26:35;98140.69;;;0.44;100.00
22580;BME280;11456;47.030;15.396;2024-02-14T01:29:02;98143.78;;;0.35;100.00
22580;BME280;11456;47.030;15.396;2024-02-14T01:31:28;98148.63;;;0.44;100.00
22580;BME280;11456;47.030;15.396;2024-02-14T01:33:56;98148.97;;;0.02;100.00
22580;BME280;11456;47.030;15.396;2024-02-14T01:36:23;98151.88;;;0.49;100.00
22580;BME280;11456;47.030;15.396;2024-02-14T01:38:49;98157.00;;;0.52;100.00
22580;BME280;11456;47.030;15.396;2024-02-14T01:41:16;98149.94;;;0.53;100.00
22580;BME280;11456;47.030;15.396;2024-02-14T01:43:43;98150.09;;;0.50;100.00
22580;BME280;11456;47.030;15.396;2024-02-14T01:46:11;98154.38;;;0.69;100.00
22580;BME280;11456;47.030;15.396;2024-02-14T01:48:38;98150.47;;;0.76;100.00
22580;BME280;11456;47.030;15.396;2024-02-14T01:51:08;98148.09;;;0.88;100.00
22580;BME280;11456;47.030;15.396;2024-02-14T01:53:39;98150.91;;;0.85;100.00
22580;BME280;11456;47.030;15.396;2024-02-14T01:56:06;98145.75;;;0.99;100.00
22580;BME280;11456;47.030;15.396;2024-02-14T01:58:34;98148.56;;;0.78;100.00
22580;BME280;11456;47.030;15.396;2024-02-14T02:01:01;98145.72;;;0.66;100.00
22580;BME280;11456;47.030;15.396;2024-02-14T02:03:29;98136.25;;;0.77;100.00
22580;BME280;11456;47.030;15.396;2024-02-14T02:05:59;98145.50;;;0.36;100.00
22580;BME280;11456;47.030;15.396;2024-02-14T02:08:26;98150.00;;;0.34;100.00
22580;BME280;11456;47.030;15.396;2024-02-14T02:10:53;98139.13;;;0.57;100.00
22580;BME280;11456;47.030;15.396;2024-02-14T02:13:20;98145.94;;;0.27;100.00
22580;BME280;11456;47.030;15.396;2024-02-14T02:15:47;98137.84;;;0.13;100.00
22580;BME280;11456;47.030;15.396;2024-02-14T02:18:14;98136.13;;;0.29;100.00
22580;BME280;11456;47.030;15.396;2024-02-14T02:20:41;98143.44;;;0.07;100.00
22580;BME280;11456;47.030;15.396;2024-02-14T02:23:13;98145.63;;;0.33;100.00
22580;BME280;11456;47.030;15.396;2024-02-14T02:25:43;98153.88;;;0.10;100.00
22580;BME280;11456;47.030;15.396;2024-02-14T02:28:10;98150.75;;;0.02;100.00
22580;BME280;11456;47.030;15.396;2024-02-14T02:30:37;98150.69;;;0.20;100.00
22580;BME280;11456;47.030;15.396;2024-02-14T02:33:04;98150.63;;;0.05;100.00
22580;BME280;11456;47.030;15.396;2024-02-14T02:35:33;98156.53;;;0.10;100.00
22580;BME280;11456;47.030;15.396;2024-02-14T02:38:00;98151.41;;;0.24;100.00
22580;BME280;11456;47.030;15.396;2024-02-14T02:40:27;98168.84;;;0.11;100.00
22580;BME280;11456;47.030;15.396;2024-02-14T02:42:54;98162.94;;;0.06;100.00
22580;BME280;11456;47.030;15.396;2024-02-14T02:45:21;98164.66;;;-0.12;100.00
22580;BME280;11456;47.030;15.396;2024-02-14T02:47:48;98169.38;;;-0.19;100.00
22580;BME280;11456;47.030;15.396;2024-02-14T02:50:18;98157.41;;;-0.26;100.00
22580;BME280;11456;47.030;15.396;2024-02-14T02:52:46;98164.66;;;-0.12;100.00
22580;BME280;11456;47.030;15.396;2024-02-14T02:55:13;98164.88;;;-0.17;100.00
22580;BME280;11456;47.030;15.396;2024-02-14T02:57:41;98163.22;;;-0.01;100.00
22580;BME280;11456;47.030;15.396;2024-02-14T03:00:08;98168.97;;;-0.10;100.00
22580;BME280;11456;47.030;15.396;2024-02-14T03:02:35;98173.66;;;0.03;100.00
22580;BME280;11456;47.030;15.396;2024-02-14T03:05:08;98173.94;;;-0.04;100.00
22580;BME280;11456;47.030;15.396;2024-02-14T03:07:37;98167.78;;;-0.04;100.00
22580;BME280;11456;47.030;15.396;2024-02-14T03:10:04;98173.69;;;-0.16;100.00
22580;BME280;11456;47.030;15.396;2024-02-14T03:12:31;98175.81;;;-0.06;100.00
22580;BME280;11456;47.030;15.396;2024-02-14T03:14:59;98174.88;;;-0.05;100.00
22580;BME280;11456;47.030;15.396;2024-02-14T03:17:26;98169.09;;;-0.13;100.00
22580;BME280;11456;47.030;15.396;2024-02-14T03:19:55;98164.91;;;0.00;100.00
22580;BME280;11456;47.030;15.396;2024-02-14T03:22:23;98167.84;;;-0.23;100.00
22580;BME280;11456;47.030;15.396;2024-02-14T03:24:50;98177.22;;;-0.34;100.00
22580;BME280;11456;47.030;15.396;2024-02-14T03:27:16;98186.41;;;-0.06;100.00
22580;BME280;11456;47.030;15.396;2024-02-14T03:29:44;98183.16;;;0.07;100.00
22580;BME280;11456;47.030;15.396;2024-02-14T03:32:11;98187.81;;;0.02;100.00
22580;BME280;11456;47.030;15.396;2024-02-14T03:34:38;98182.22;;;0.08;100.00
22580;BME280;11456;47.030;15.396;2024-02-14T03:37:05;98188.81;;;0.18;100.00
22580;BME280;11456;47.030;15.396;2024-02-14T03:39:33;98190.53;;;0.19;100.00
22580;BME280;11456;47.030;15.396;2024-02-14T03:42:00;98186.47;;;0.12;100.00
22580;BME280;11456;47.030;15.396;2024-02-14T03:44:29;98185.97;;;0.04;100.00
22580;BME280;11456;47.030;15.396;2024-02-14T03:46:58;98188.28;;;-0.08;100.00
22580;BME280;11456;47.030;15.396;2024-02-14T03:49:26;98194.59;;;-0.29;100.00
22580;BME280;11456;47.030;15.396;2024-02-14T03:51:52;98191.72;;;-0.24;100.00
22580;BME280;11456;47.030;15.396;2024-02-14T03:54:21;98191.84;;;-0.09;100.00
22580;BME280;11456;47.030;15.396;2024-02-14T03:56:48;98192.78;;;-0.10;100.00
22580;BME280;11456;47.030;15.396;2024-02-14T03:59:14;98194.88;;;-0.16;100.00
22580;BME280;11456;47.030;15.396;2024-02-14T04:01:44;98202.81;;;-0.35;100.00
22580;BME280;11456;47.030;15.396;2024-02-14T04:04:11;98205.19;;;-0.48;100.00
22580;BME280;11456;47.030;15.396;2024-02-14T04:06:38;98207.69;;;-0.26;100.00
22580;BME280;11456;47.030;15.396;2024-02-14T04:09:05;98197.03;;;-0.43;100.00
22580;BME280;11456;47.030;15.396;2024-02-14T04:11:32;98208.75;;;-0.30;100.00
22580;BME280;11456;47.030;15.396;2024-02-14T04:13:59;98206.91;;;-0.28;100.00
22580;BME280;11456;47.030;15.396;2024-02-14T04:16:26;98210.06;;;-0.20;100.00
22580;BME280;11456;47.030;15.396;2024-02-14T04:18:53;98204.03;;;-0.42;100.00
22580;BME280;11456;47.030;15.396;2024-02-14T04:21:21;98204.19;;;-0.45;100.00
22580;BME280;11456;47.030;15.396;2024-02-14T04:23:48;98202.59;;;-0.49;100.00
22580;BME280;11456;47.030;15.396;2024-02-14T04:26:19;98208.91;;;-0.33;100.00
22580;BME280;11456;47.030;15.396;2024-02-14T04:28:46;98207.25;;;-0.54;100.00
22580;BME280;11456;47.030;15.396;2024-02-14T04:31:13;98211.19;;;-0.44;100.00
22580;BME280;11456;47.030;15.396;2024-02-14T04:33:40;98218.41;;;-0.29;100.00
22580;BME280;11456;47.030;15.396;2024-02-14T04:36:07;98222.19;;;-0.53;100.00
22580;BME280;11456;47.030;15.396;2024-02-14T04:38:34;98213.03;;;-0.65;100.00
22580;BME280;11456;47.030;15.396;2024-02-14T04:41:01;98217.13;;;-0.39;100.00
22580;BME280;11456;47.030;15.396;2024-02-14T04:43:28;98224.03;;;-0.55;100.00
22580;BME280;11456;47.030;15.396;2024-02-14T04:45:54;98219.34;;;-0.49;100.00
22580;BME280;11456;47.030;15.396;2024-02-14T04:48:21;98213.06;;;-0.46;100.00
22580;BME280;11456;47.030;15.396;2024-02-14T04:50:48;98223.19;;;-0.37;100.00
22580;BME280;11456;47.030;15.396;2024-02-14T04:53:15;98229.28;;;-0.35;100.00
22580;BME280;11456;47.030;15.396;2024-02-14T04:55:43;98218.34;;;-0.46;100.00
22580;BME280;11456;47.030;15.396;2024-02-14T04:58:10;98226.97;;;-0.61;100.00
22580;BME280;11456;47.030;15.396;2024-02-14T05:00:37;98236.00;;;-0.65;100.00
22580;BME280;11456;47.030;15.396;2024-02-14T05:03:05;98226.88;;;-0.78;100.00
22580;BME280;11456;47.030;15.396;2024-02-14T05:05:32;98227.91;;;-0.62;100.00
22580;BME280;11456;47.030;15.396;2024-02-14T05:08:00;98228.47;;;-0.95;100.00
22580;BME280;11456;47.030;15.396;2024-02-14T05:10:27;98221.63;;;-0.99;100.00
22580;BME280;11456;47.030;15.396;2024-02-14T05:12:54;98229.31;;;-0.74;100.00
22580;BME280;11456;47.030;15.396;2024-02-14T05:15:21;98228.00;;;-0.45;100.00
22580;BME280;11456;47.030;15.396;2024-02-14T05:17:47;98228.19;;;-0.31;100.00
22580;BME280;11456;47.030;15.396;2024-02-14T05:20:16;98233.38;;;-0.28;100.00
22580;BME280;11456;47.030;15.396;2024-02-14T05:22:43;98237.00;;;-0.49;100.00
22580;BME280;11456;47.030;15.396;2024-02-14T05:25:10;98225.19;;;-0.42;100.00
22580;BME280;11456;47.030;15.396;2024-02-14T05:27:37;98226.75;;;-0.38;100.00
22580;BME280;11456;47.030;15.396;2024-02-14T05:30:04;98231.69;;;-0.49;100.00
22580;BME280;11456;47.030;15.396;2024-02-14T05:32:37;98230.38;;;-0.39;100.00
22580;BME280;11456;47.030;15.396;2024-02-14T05:35:04;98226.19;;;-0.45;100.00
22580;BME280;11456;47.030;15.396;2024-02-14T05:37:32;98227.56;;;-0.36;100.00
22580;BME280;11456;47.030;15.396;2024-02-14T05:40:01;98233.38;;;-0.28;100.00
22580;BME280;11456;47.030;15.396;2024-02-14T05:42:28;98233.00;;;-0.39;100.00
22580;BME280;11456;47.030;15.396;2024-02-14T05:44:55;98226.75;;;-0.38;100.00
22580;BME280;11456;47.030;15.396;2024-02-14T05:47:22;98233.19;;;-0.62;100.00
22580;BME280;11456;47.030;15.396;2024-02-14T05:49:48;98234.50;;;-0.52;100.00
22580;BME280;11456;47.030;15.396;2024-02-14T05:52:15;98235.06;;;-0.64;100.00
22580;BME280;11456;47.030;15.396;2024-02-14T05:54:42;98226.41;;;-0.49;100.00
22580;BME280;11456;47.030;15.396;2024-02-14T05:57:09;98234.84;;;-0.60;100.00
22580;BME280;11456;47.030;15.396;2024-02-14T05:59:36;98233.81;;;-0.57;100.00
22580;BME280;11456;47.030;15.396;2024-02-14T06:02:03;98240.06;;;-0.58;100.00
22580;BME280;11456;47.030;15.396;2024-02-14T06:04:32;98231.84;;;-0.52;100.00
22580;BME280;11456;47.030;15.396;2024-02-14T06:06:58;98235.38;;;-0.33;100.00
22580;BME280;11456;47.030;15.396;2024-02-14T06:09:25;98233.81;;;-0.57;100.00
22580;BME280;11456;47.030;15.396;2024-02-14T06:11:52;98235.38;;;-0.33;100.00
22580;BME280;11456;47.030;15.396;2024-02-14T06:14:19;98230.84;;;-0.31;100.00
22580;BME280;11456;47.030;15.396;2024-02-14T06:16:46;98235.38;;;-0.33;100.00
22580;BME280;11456;47.030;15.396;2024-02-14T06:19:12;98229.16;;;0.23;100.00
22580;BME280;11456;47.030;15.396;2024-02-14T06:21:39;98237.22;;;-0.16;100.00
22580;BME280;11456;47.030;15.396;2024-02-14T06:24:06;98237.38;;;0.35;100.00
22580;BME280;11456;47.030;15.396;2024-02-14T06:26:33;98241.97;;;0.84;100.00
22580;BME280;11456;47.030;15.396;2024-02-14T06:29:00;98255.91;;;0.89;100.00
22580;BME280;11456;47.030;15.396;2024-02-14T06:31:26;98242.56;;;1.40;100.00
22580;BME280;11456;47.030;15.396;2024-02-14T06:33:53;98252.53;;;1.52;100.00
22580;BME280;11456;47.030;15.396;2024-02-14T06:36:20;98257.31;;;1.29;100.00
22580;BME280;11456;47.030;15.396;2024-02-14T06:38:47;98258.78;;;1.67;100.00
22580;BME280;11456;47.030;15.396;2024-02-14T06:41:13;98266.09;;;1.79;100.00
22580;BME280;11456;47.030;15.396;2024-02-14T06:43:40;98258.63;;;1.70;100.00
22580;BME280;11456;47.030;15.396;2024-02-14T06:46:07;98273.84;;;1.67;100.00
22580;BME280;11456;47.030;15.396;2024-02-14T06:48:33;98281.19;;;1.79;100.00
22580;BME280;11456;47.030;15.396;2024-02-14T06:51:01;98277.28;;;2.01;100.00
22580;BME280;11456;47.030;15.396;2024-02-14T06:53:28;98277.78;;;2.08;100.00
22580;BME280;11456;47.030;15.396;2024-02-14T06:55:58;98278.66;;;2.56;100.00
22580;BME280;11456;47.030;15.396;2024-02-14T06:58:24;98280.09;;;2.46;100.00
22580;BME280;11456;47.030;15.396;2024-02-14T07:00:51;98273.69;;;2.50;100.00
22580;BME280;11456;47.030;15.396;2024-02-14T07:03:17;98273.69;;;2.50;100.00
22580;BME280;11456;47.030;15.396;2024-02-14T07:05:44;98275.63;;;1.83;100.00
22580;BME280;11456;47.030;15.396;2024-02-14T07:08:11;98277.34;;;1.84;100.00
22580;BME280;11456;47.030;15.396;2024-02-14T07:10:38;98274.19;;;2.40;100.00
22580;BME280;11456;47.030;15.396;2024-02-14T07:13:04;98274.47;;;3.11;100.00
22580;BME280;11456;47.030;15.396;2024-02-14T07:15:31;98276.38;;;3.96;100.00
22580;BME280;11456;47.030;15.396;2024-02-14T07:17:58;98274.59;;;4.64;100.00
22580;BME280;11456;47.030;15.396;2024-02-14T07:20:26;98272.31;;;5.12;100.00
22580;BME280;11456;47.030;15.396;2024-02-14T07:22:53;98291.25;;;5.59;94.75
22580;BME280;11456;47.030;15.396;2024-02-14T07:25:20;98279.69;;;6.22;89.52
22580;BME280;11456;47.030;15.396;2024-02-14T07:27:46;98281.19;;;6.26;91.79
22580;BME280;11456;47.030;15.396;2024-02-14T07:30:16;98291.25;;;6.96;84.81
22580;BME280;11456;47.030;15.396;2024-02-14T07:32:44;98291.63;;;7.37;78.81
22580;BME280;11456;47.030;15.396;2024-02-14T07:35:11;98291.41;;;7.97;74.85
22580;BME280;11456;47.030;15.396;2024-02-14T07:37:40;98290.56;;;7.40;70.21
22580;BME280;11456;47.030;15.396;2024-02-14T07:40:09;98287.88;;;7.40;74.83
22580;BME280;11456;47.030;15.396;2024-02-14T07:42:36;98287.91;;;7.62;76.09
22580;BME280;11456;47.030;15.396;2024-02-14T07:45:03;98286.81;;;7.42;69.82
22580;BME280;11456;47.030;15.396;2024-02-14T07:47:30;98294.75;;;7.55;67.69
22580;BME280;11456;47.030;15.396;2024-02-14T07:49:57;98297.84;;;7.73;72.27
22580;BME280;11456;47.030;15.396;2024-02-14T07:52:26;98304.81;;;7.86;66.77
22580;BME280;11456;47.030;15.396;2024-02-14T07:54:53;98304.59;;;8.12;69.12
22580;BME280;11456;47.030;15.396;2024-02-14T07:57:23;98306.09;;;8.38;64.98
22580;BME280;11456;47.030;15.396;2024-02-14T07:59:51;98299.09;;;8.24;69.79
22580;BME280;11456;47.030;15.396;2024-02-14T08:02:19;98299.72;;;8.05;67.84
22580;BME280;11456;47.030;15.396;2024-02-14T08:04:45;98299.72;;;8.17;70.36
22580;BME280;11456;47.030;15.396;2024-02-14T08:07:12;98304.06;;;7.95;65.25
22580;BME280;11456;47.030;15.396;2024-02-14T08:09:39;98313.47;;;7.44;67.00
22580;BME280;11456;47.030;15.396;2024-02-14T08:12:06;98314.88;;;7.02;69.83
22580;BME280;11456;47.030;15.396;2024-02-14T08:14:33;98311.47;;;6.39;73.91
22580;BME280;11456;47.030;15.396;2024-02-14T08:17:00;98311.63;;;6.85;72.98
22580;BME280;11456;47.030;15.396;2024-02-14T08:19:27;98311.06;;;6.93;73.29
22580;BME280;11456;47.030;15.396;2024-02-14T08:21:53;98310.13;;;6.81;72.29
22580;BME280;11456;47.030;15.396;2024-02-14T08:24:27;98307.56;;;6.80;77.42
22580;BME280;11456;47.030;15.396;2024-02-14T08:26:54;98306.69;;;7.62;73.06
22580;BME280;11456;47.030;15.396;2024-02-14T08:29:21;98301.50;;;7.37;70.58
22580;BME280;11456;47.030;15.396;2024-02-14T08:31:48;98298.59;;;6.44;78.29
22580;BME280;11456;47.030;15.396;2024-02-14T08:34:15;98298.63;;;7.16;71.55
22580;BME280;11456;47.030;15.396;2024-02-14T08:36:45;98289.47;;;8.55;68.47
22580;BME280;11456;47.030;15.396;2024-02-14T08:39:11;98297.94;;;8.94;62.41
22580;BME280;11456;47.030;15.396;2024-02-14T08:41:39;98300.34;;;7.52;68.60
22580;BME280;11456;47.030;15.396;2024-02-14T08:44:07;98291.25;;;7.31;73.04
22580;BME280;11456;47.030;15.396;2024-02-14T08:46:34;98294.59;;;8.25;68.76
22580;BME280;11456;47.030;15.396;2024-02-14T08:49:01;98293.59;;;8.59;64.65
22580;BME280;11456;47.030;15.396;2024-02-14T08:51:38;98287.00;;;10.21;59.52
22580;BME280;11456;47.030;15.396;2024-02-14T08:54:05;98289.91;;;9.46;60.43
22580;BME280;11456;47.030;15.396;2024-02-14T08:56:33;98285.22;;;8.41;62.59
22580;BME280;11456;47.030;15.396;2024-02-14T08:59:01;98284.63;;;7.47;68.05
22580;BME280;11456;47.030;15.396;2024-02-14T09:01:29;98281.78;;;8.17;65.57
22580;BME280;11456;47.030;15.396;2024-02-14T09:03:57;98285.19;;;9.07;59.29
22580;BME280;11456;47.030;15.396;2024-02-14T09:06:25;98278.50;;;9.75;56.24
22580;BME280;11456;47.030;15.396;2024-02-14T09:08:55;98277.81;;;9.20;58.06
22580;BME280;11456;47.030;15.396;2024-02-14T09:11:22;98270.50;;;10.45;57.90
22580;BME280;11456;47.030;15.396;2024-02-14T09:13:49;98268.34;;;11.85;52.74
22580;BME280;11456;47.030;15.396;2024-02-14T09:16:20;98266.78;;;12.01;48.65
22580;BME280;11456;47.030;15.396;2024-02-14T09:18:48;98278.06;;;11.39;50.84
22580;BME280;11456;47.030;15.396;2024-02-14T09:21:15;98276.72;;;11.91;49.83
22580;BME280;11456;47.030;15.396;2024-02-14T09:23:46;98274.53;;;10.60;51.33
22580;BME280;11456;47.030;15.396;2024-02-14T09:26:13;98276.75;;;11.14;51.08
22580;BME280;11456;47.030;15.396;2024-02-14T09:28:40;98279.81;;;12.16;47.72
22580;BME280;11456;47.030;15.396;2024-02-14T09:31:07;98273.88;;;12.02;48.15
22580;BME280;11456;47.030;15.396;2024-02-14T09:33:36;98275.91;;;11.62;51.31
22580;BME280;11456;47.030;15.396;2024-02-14T09:36:04;98275.22;;;12.26;48.45
22580;BME280;11456;47.030;15.396;2024-02-14T09:38:31;98272.19;;;13.11;45.42
22580;BME280;11456;47.030;15.396;2024-02-14T09:41:51;98275.28;;;12.71;46.48
22580;BME280;11456;47.030;15.396;2024-02-14T09:43:50;98277.25;;;13.41;43.14
22580;BME280;11456;47.030;15.396;2024-02-14T09:46:16;98279.13;;;12.96;45.01
22580;BME280;11456;47.030;15.396;2024-02-14T09:48:46;98272.53;;;13.25;42.50
22580;BME280;11456;47.030;15.396;2024-02-14T09:51:13;98268.75;;;12.46;43.21
22580;BME280;11456;47.030;15.396;2024-02-14T09:53:41;98276.53;;;12.22;43.28
22580;BME280;11456;47.030;15.396;2024-02-14T09:56:11;98276.75;;;12.65;43.16
22580;BME280;11456;47.030;15.396;2024-02-14T09:58:40;98277.78;;;12.18;42.61
22580;BME280;11456;47.030;15.396;2024-02-14T10:01:07;98270.00;;;12.42;42.71
22580;BME280;11456;47.030;15.396;2024-02-14T10:03:33;98265.91;;;12.38;42.36
22580;BME280;11456;47.030;15.396;2024-02-14T10:06:02;98263.69;;;14.28;40.13
22580;BME280;11456;47.030;15.396;2024-02-14T10:08:30;98259.88;;;13.87;38.93
22580;BME280;11456;47.030;15.396;2024-02-14T10:10:57;98257.97;;;13.80;39.48
22580;BME280;11456;47.030;15.396;2024-02-14T10:13:30;98260.09;;;13.33;39.94
22580;BME280;11456;47.030;15.396;2024-02-14T10:15:58;98264.03;;;12.93;39.32
22580;BME280;11456;47.030;15.396;2024-02-14T10:18:24;98257.69;;;13.47;39.28
22580;BME280;11456;47.030;15.396;2024-02-14T10:20:54;98246.97;;;14.67;37.25
22580;BME280;11456;47.030;15.396;2024-02-14T10:23:21;98250.38;;;14.69;36.68
22580;BME280;11456;47.030;15.396;2024-02-14T10:25:56;98247.03;;;13.28;38.80
22580;BME280;11456;47.030;15.396;2024-02-14T10:28:23;98240.50;;;14.34;38.06
22580;BME280;11456;47.030;15.396;2024-02-14T10:31:02;98233.53;;;14.49;38.02
22580;BME280;11456;47.030;15.396;2024-02-14T10:33:31;98233.53;;;14.23;38.08
22580;BME280;11456;47.030;15.396;2024-02-14T10:35:59;98238.31;;;14.29;38.15
22580;BME280;11456;47.030;15.396;2024-02-14T10:38:32;98232.75;;;13.79;38.90
22580;BME280;11456;47.030;15.396;2024-02-14T10:41:02;98224.69;;;14.47;38.30
22580;BME280;11456;47.030;15.396;2024-02-14T10:43:31;98224.03;;;14.95;36.66
22580;BME280;11456;47.030;15.396;2024-02-14T10:46:00;98220.38;;;15.53;35.74
22580;BME280;11456;47.030;15.396;2024-02-14T10:48:34;98217.50;;;13.78;38.96
22580;BME280;11456;47.030;15.396;2024-02-14T10:51:02;98209.13;;;15.23;36.84
22580;BME280;11456;47.030;15.396;2024-02-14T10:53:33;98209.31;;;15.22;35.95
22580;BME280;11456;47.030;15.396;2024-02-14T10:56:03;98204.34;;;14.93;36.56
22580;BME280;11456;47.030;15.396;2024-02-14T10:58:30;98202.31;;;14.95;37.02
22580;BME280;11456;47.030;15.396;2024-02-14T11:00:59;98212.78;;;14.82;36.90
22580;BME280;11456;47.030;15.396;2024-02-14T11:03:27;98203.38;;;15.10;36.79
22580;BME280;11456;47.030;15.396;2024-02-14T11:06:01;98200.41;;;14.71;36.85
22580;BME280;11456;47.030;15.396;2024-02-14T11:08:30;98192.09;;;14.73;36.55
22580;BME280;11456;47.030;15.396;2024-02-14T11:10:59;98190.84;;;15.34;35.64
22580;BME280;11456;47.030;15.396;2024-02-14T11:13:28;98193.53;;;15.17;35.52
22580;BME280;11456;47.030;15.396;2024-02-14T11:15:56;98194.91;;;15.46;35.46
22580;BME280;11456;47.030;15.396;2024-02-14T11:18:27;98192.50;;;15.99;35.61
22580;BME280;11456;47.030;15.396;2024-02-14T11:20:57;98187.94;;;15.03;36.55
22580;BME280;11456;47.030;15.396;2024-02-14T11:23:24;98186.75;;;15.21;36.04
22580;BME280;11456;47.030;15.396;2024-02-14T11:26:00;98176.53;;;14.99;36.69
22580;BME280;11456;47.030;15.396;2024-02-14T11:28:28;98175.75;;;15.47;36.27
22580;BME280;11456;47.030;15.396;2024-02-14T11:31:00;98178.28;;;15.65;36.10
22580;BME280;11456;47.030;15.396;2024-02-14T11:33:27;98180.31;;;15.14;36.93
22580;BME280;11456;47.030;15.396;2024-02-14T11:35:54;98174.88;;;15.47;35.90
22580;BME280;11456;47.030;15.396;2024-02-14T11:38:23;98178.41;;;14.91;37.46
22580;BME280;11456;47.030;15.396;2024-02-14T11:40:55;98176.22;;;15.83;35.45
22580;BME280;11456;47.030;15.396;2024-02-14T11:43:25;98176.22;;;15.83;35.29
22580;BME280;11456;47.030;15.396;2024-02-14T11:45:52;98181.16;;;15.15;34.22
22580;BME280;11456;47.030;15.396;2024-02-14T11:48:19;98179.88;;;16.15;35.08
22580;BME280;11456;47.030;15.396;2024-02-14T11:50:47;98173.03;;;15.39;34.29
22580;BME280;11456;47.030;15.396;2024-02-14T11:53:15;98168.81;;;15.53;34.00
22580;BME280;11456;47.030;15.396;2024-02-14T11:55:46;98171.63;;;16.39;32.67
22580;BME280;11456;47.030;15.396;2024-02-14T11:58:16;98176.72;;;16.42;31.29
22580;BME280;11456;47.030;15.396;2024-02-14T12:00:45;98165.22;;;17.02;30.92
22580;BME280;11456;47.030;15.396;2024-02-14T12:03:16;98171.59;;;16.47;32.30
22580;BME280;11456;47.030;15.396;2024-02-14T12:05:43;98158.22;;;17.68;29.75
22580;BME280;11456;47.030;15.396;2024-02-14T12:08:11;98166.72;;;17.04;29.80
22580;BME280;11456;47.030;15.396;2024-02-14T12:10:38;98163.16;;;16.34;29.63
22580;BME280;11456;47.030;15.396;2024-02-14T12:13:09;98153.28;;;17.03;28.62
22580;BME280;11456;47.030;15.396;2024-02-14T12:15:47;98160.91;;;16.07;30.12
22580;BME280;11456;47.030;15.396;2024-02-14T12:18:15;98157.53;;;15.88;30.52
22580;BME280;11456;47.030;15.396;2024-02-14T12:20:43;98158.03;;;16.39;30.02
22580;BME280;11456;47.030;15.396;2024-02-14T12:23:17;98156.25;;;17.16;28.08
22580;BME280;11456;47.030;15.396;2024-02-14T12:25:45;98163.81;;;16.44;29.07
22580;BME280;11456;47.030;15.396;2024-02-14T12:28:19;98153.41;;;17.32;27.75
22580;BME280;11456;47.030;15.396;2024-02-14T12:30:50;98161.75;;;16.46;28.32
22580;BME280;11456;47.030;15.396;2024-02-14T12:33:23;98153.56;;;16.54;28.35
22580;BME280;11456;47.030;15.396;2024-02-14T12:35:53;98150.69;;;16.09;29.32
22580;BME280;11456;47.030;15.396;2024-02-14T12:38:21;98152.44;;;17.25;29.27
22580;BME280;11456;47.030;15.396;2024-02-14T12:40:50;98143.69;;;15.67;31.75
22580;BME280;11456;47.030;15.396;2024-02-14T12:43:18;98138.66;;;17.04;28.14
22580;BME280;11456;47.030;15.396;2024-02-14T12:45:44;98141.09;;;17.21;28.39
22580;BME280;11456;47.030;15.396;2024-02-14T12:48:12;98139.00;;;17.46;27.75
22580;BME280;11456;47.030;15.396;2024-02-14T12:50:40;98136.94;;;17.48;28.70